createdAt,value
2022-12-16T00:01:18.443Z,25.50
2022-12-16T00:03:52.771Z,25.83
2022-12-16T00:06:22.990Z,27.90
2022-12-16T00:08:50.110Z,28.20
2022-12-16T00:11:19.834Z,25.20
2022-12-16T00:13:47.574Z,31.15
2022-12-16T00:16:15.984Z,30.40
2022-12-16T00:18:43.196Z,31.23
2022-12-16T00:21:10.898Z,30.25
2022-12-16T00:23:44.262Z,28.83
2022-12-16T00:26:12.445Z,27.85
2022-12-16T00:28:40.114Z,29.63
2022-12-16T00:31:07.370Z,32.20
2022-12-16T00:33:35.299Z,27.10
2022-12-16T00:36:03.113Z,32.65
2022-12-16T00:38:30.217Z,26.85
2022-12-16T00:40:57.417Z,27.20
2022-12-16T00:43:24.613Z,32.15
2022-12-16T00:45:52.065Z,29.20
2022-12-16T00:48:23.185Z,30.25
2022-12-16T00:50:52.059Z,26.42
2022-12-16T00:53:19.503Z,29.30
2022-12-16T00:55:46.618Z,25.58
2022-12-16T00:58:14.040Z,26.38
2022-12-16T01:00:41.310Z,28.05
2022-12-16T01:03:08.783Z,27.90
2022-12-16T01:05:39.138Z,24.40
2022-12-16T01:08:06.262Z,23.92
2022-12-16T01:10:33.446Z,26.38
2022-12-16T01:13:00.566Z,26.42
2022-12-16T01:15:27.704Z,28.52
2022-12-16T01:17:54.822Z,22.95
2022-12-16T01:20:22.497Z,25.60
2022-12-16T01:22:49.614Z,25.63
2022-12-16T01:25:17.736Z,25.33
2022-12-16T01:27:44.881Z,23.13
2022-12-16T01:30:12.345Z,24.55
2022-12-16T01:32:39.529Z,22.00
2022-12-16T01:35:14.205Z,25.17
2022-12-16T01:37:50.681Z,24.90
2022-12-16T01:40:23.327Z,21.48
2022-12-16T01:42:50.829Z,22.77
2022-12-16T01:45:30.168Z,28.98
2022-12-16T01:47:59.710Z,24.05
2022-12-16T01:50:27.001Z,25.67
2022-12-16T01:52:56.357Z,24.25
2022-12-16T01:55:29.137Z,25.55
2022-12-16T01:57:59.587Z,25.95
2022-12-16T02:00:26.710Z,27.40
2022-12-16T02:02:54.669Z,25.33
2022-12-16T02:05:23.160Z,25.08
2022-12-16T02:08:04.485Z,26.02
2022-12-16T02:10:43.919Z,24.55
2022-12-16T02:13:16.890Z,25.30
2022-12-16T02:15:56.301Z,24.10
2022-12-16T02:18:38.693Z,24.42
2022-12-16T02:21:09.972Z,25.30
2022-12-16T02:23:43.716Z,22.38
2022-12-16T02:26:14.041Z,22.45
2022-12-16T02:28:44.122Z,23.35
2022-12-16T02:31:26.761Z,22.85
2022-12-16T02:34:09.346Z,22.42
2022-12-16T02:36:54.983Z,23.40
2022-12-16T02:39:23.655Z,23.73
2022-12-16T02:42:03.612Z,23.33
2022-12-16T02:44:57.521Z,23.75
2022-12-16T02:47:25.175Z,20.77
2022-12-16T02:49:53.697Z,22.10
2022-12-16T02:52:22.861Z,22.15
2022-12-16T02:54:52.173Z,19.58
2022-12-16T02:57:40.861Z,22.95
2022-12-16T03:00:12.603Z,25.25
2022-12-16T03:02:48.292Z,23.65
2022-12-16T03:05:18.497Z,23.55
2022-12-16T03:07:45.962Z,22.35
2022-12-16T03:10:15.908Z,21.00
2022-12-16T03:12:44.325Z,21.58
2022-12-16T03:15:13.293Z,21.92
2022-12-16T03:17:40.541Z,22.55
2022-12-16T03:20:18.211Z,21.75
2022-12-16T03:22:47.182Z,25.45
2022-12-16T03:25:14.872Z,24.23
2022-12-16T03:27:51.386Z,23.70
2022-12-16T03:30:20.644Z,22.90
2022-12-16T03:32:51.806Z,23.08
2022-12-16T03:35:27.689Z,22.27
2022-12-16T03:37:56.607Z,23.52
2022-12-16T03:40:25.880Z,22.70
2022-12-16T03:42:54.438Z,24.15
2022-12-16T03:45:26.793Z,22.52
2022-12-16T03:47:54.150Z,21.67
2022-12-16T03:50:24.554Z,26.00
2022-12-16T03:52:51.647Z,23.65
2022-12-16T03:55:18.761Z,24.67
2022-12-16T03:57:45.867Z,25.33
2022-12-16T04:00:13.360Z,23.45
2022-12-16T04:02:40.615Z,24.58
2022-12-16T04:05:08.284Z,25.67
2022-12-16T04:07:35.622Z,25.33
2022-12-16T04:10:02.761Z,27.80
2022-12-16T04:12:48.586Z,25.30
2022-12-16T04:15:18.686Z,27.80
2022-12-16T04:18:04.513Z,32.25
2022-12-16T04:20:57.878Z,34.10
2022-12-16T04:23:44.601Z,30.70
2022-12-16T04:26:11.801Z,31.63
2022-12-16T04:28:38.921Z,31.75
2022-12-16T04:31:06.236Z,30.92
2022-12-16T04:33:52.425Z,32.30
2022-12-16T04:36:38.296Z,29.88
2022-12-16T04:39:24.284Z,32.70
2022-12-16T04:42:13.231Z,32.45
2022-12-16T04:44:59.040Z,32.90
2022-12-16T04:47:44.943Z,32.58
2022-12-16T04:50:30.945Z,32.88
2022-12-16T04:53:16.830Z,33.75
2022-12-16T04:56:04.687Z,30.55
2022-12-16T04:58:50.996Z,33.92
2022-12-16T05:01:36.890Z,34.13
2022-12-16T05:04:23.051Z,33.25
2022-12-16T05:07:08.888Z,36.60
2022-12-16T05:09:54.734Z,37.20
2022-12-16T05:12:40.851Z,34.45
2022-12-16T05:15:26.703Z,34.38
2022-12-16T05:18:12.767Z,37.03
2022-12-16T05:20:58.625Z,31.88
2022-12-16T05:23:44.304Z,38.65
2022-12-16T05:26:30.261Z,35.90
2022-12-16T05:29:16.154Z,39.20
2022-12-16T05:32:02.118Z,34.35
2022-12-16T05:34:48.179Z,37.28
2022-12-16T05:37:47.777Z,34.42
2022-12-16T05:40:33.737Z,34.47
2022-12-16T05:43:19.634Z,38.28
2022-12-16T05:46:05.749Z,35.95
2022-12-16T05:48:51.683Z,35.80
2022-12-16T05:51:37.407Z,38.53
2022-12-16T05:54:23.597Z,36.40
2022-12-16T05:57:09.597Z,38.67
2022-12-16T05:59:55.518Z,37.65
2022-12-16T06:02:41.700Z,38.58
2022-12-16T06:05:27.685Z,36.60
2022-12-16T06:08:13.668Z,38.95
2022-12-16T06:10:59.815Z,41.67
2022-12-16T06:13:45.457Z,42.50
2022-12-16T06:16:44.756Z,48.00
2022-12-16T06:19:30.644Z,45.38
2022-12-16T06:22:16.613Z,46.17
2022-12-16T06:25:02.658Z,44.45
2022-12-16T06:27:48.740Z,48.03
2022-12-16T06:30:34.482Z,50.35
2022-12-16T06:33:20.379Z,56.17
2022-12-16T06:36:06.254Z,44.33
2022-12-16T06:38:52.323Z,46.47
2022-12-16T06:41:38.421Z,51.90
2022-12-16T06:44:24.304Z,49.65
2022-12-16T06:47:10.440Z,47.58
2022-12-16T06:49:56.371Z,52.30
2022-12-16T06:52:42.167Z,49.17
2022-12-16T06:55:28.086Z,50.38
2022-12-16T06:58:16.555Z,47.50
2022-12-16T07:01:02.966Z,49.65
2022-12-16T07:03:48.963Z,53.65
2022-12-16T07:06:34.885Z,50.30
2022-12-16T07:09:20.945Z,48.38
2022-12-16T07:12:06.881Z,52.22
2022-12-16T07:14:52.973Z,56.67
2022-12-16T07:17:39.061Z,52.78
2022-12-16T07:20:25.050Z,53.25
2022-12-16T07:23:19.102Z,54.15
2022-12-16T07:26:05.365Z,55.10
2022-12-16T07:28:51.286Z,55.53
2022-12-16T07:31:37.327Z,51.70
2022-12-16T07:34:23.386Z,49.72
2022-12-16T07:37:09.299Z,51.30
2022-12-16T07:39:55.626Z,54.38
2022-12-16T07:42:42.065Z,54.67
2022-12-16T07:45:28.679Z,50.75
2022-12-16T07:48:22.230Z,49.60
2022-12-16T07:51:08.073Z,47.25
2022-12-16T07:53:54.536Z,48.33
2022-12-16T07:56:40.458Z,48.33
2022-12-16T07:59:26.345Z,56.10
2022-12-16T08:02:12.310Z,52.55
2022-12-16T08:04:58.006Z,53.88
2022-12-16T08:07:43.990Z,53.08
2022-12-16T08:10:30.038Z,48.92
2022-12-16T08:13:25.866Z,55.88
2022-12-16T08:16:11.988Z,51.35
2022-12-16T08:18:57.770Z,49.20
2022-12-16T08:21:43.789Z,52.75
2022-12-16T08:24:29.633Z,50.72
2022-12-16T08:27:15.644Z,49.30
2022-12-16T08:30:01.588Z,47.42
2022-12-16T08:32:47.474Z,50.97
2022-12-16T08:35:33.563Z,48.90
2022-12-16T08:38:19.842Z,48.45
2022-12-16T08:41:05.851Z,45.90
2022-12-16T08:43:53.014Z,44.00
2022-12-16T08:46:39.172Z,44.90
2022-12-16T08:49:25.345Z,44.67
2022-12-16T08:52:11.442Z,44.65
2022-12-16T08:54:57.226Z,45.17
2022-12-16T08:57:43.197Z,51.75
2022-12-16T09:00:29.668Z,46.72
2022-12-16T09:03:18.916Z,47.90
2022-12-16T09:06:25.023Z,50.17
2022-12-16T09:11:56.061Z,44.22
2022-12-16T09:14:41.967Z,46.80
2022-12-16T09:17:27.953Z,45.17
2022-12-16T09:20:13.834Z,44.90
2022-12-16T09:22:59.762Z,50.90
2022-12-16T09:25:45.735Z,45.60
2022-12-16T09:28:31.607Z,43.60
2022-12-16T09:31:17.524Z,41.38
2022-12-16T09:34:03.447Z,43.92
2022-12-16T09:36:49.054Z,41.40
2022-12-16T09:39:34.891Z,42.67
2022-12-16T09:42:20.764Z,41.33
2022-12-16T09:45:20.062Z,45.80
2022-12-16T09:48:23.781Z,44.40
2022-12-16T09:51:12.784Z,40.70
2022-12-16T09:53:59.298Z,42.30
2022-12-16T09:56:47.975Z,43.17
2022-12-16T09:59:35.137Z,41.85
2022-12-16T10:02:21.248Z,37.45
2022-12-16T10:05:11.192Z,36.63
2022-12-16T10:07:59.889Z,38.78
2022-12-16T10:10:52.510Z,42.03
2022-12-16T10:13:52.421Z,38.35
2022-12-16T10:16:57.400Z,44.80
2022-12-16T10:20:08.751Z,39.42
2022-12-16T10:23:14.978Z,40.30
2022-12-16T10:26:07.624Z,40.30
2022-12-16T10:29:06.444Z,37.35
2022-12-16T10:31:53.094Z,42.58
2022-12-16T10:34:40.267Z,41.55
2022-12-16T10:37:26.333Z,41.63
2022-12-16T10:40:17.438Z,40.10
2022-12-16T10:43:07.422Z,40.85
2022-12-16T10:45:59.908Z,42.47
2022-12-16T10:48:55.132Z,42.42
2022-12-16T10:51:43.190Z,42.25
2022-12-16T10:54:37.882Z,45.65
2022-12-16T10:57:35.031Z,44.53
2022-12-16T11:00:29.674Z,39.63
2022-12-16T11:03:15.786Z,37.90
2022-12-16T11:06:22.064Z,43.08
2022-12-16T11:09:07.850Z,39.85
2022-12-16T11:11:53.446Z,42.95
2022-12-16T11:15:27.014Z,42.53
2022-12-16T11:17:54.748Z,41.03
2022-12-16T11:20:43.422Z,43.10
2022-12-16T11:23:35.260Z,46.28
2022-12-16T11:26:31.739Z,45.83
2022-12-16T11:29:33.738Z,43.75
2022-12-16T11:32:25.558Z,45.97
2022-12-16T11:35:19.250Z,45.00
2022-12-16T11:38:05.998Z,42.60
2022-12-16T11:40:52.130Z,41.58
2022-12-16T11:43:39.113Z,42.65
2022-12-16T11:46:29.345Z,46.92
2022-12-16T11:49:28.078Z,46.13
2022-12-16T11:52:35.911Z,42.28
2022-12-16T11:55:55.556Z,44.83
2022-12-16T11:58:51.332Z,43.00
2022-12-16T12:01:44.922Z,41.58
2022-12-16T12:04:31.826Z,38.88
2022-12-16T12:07:41.222Z,41.20
2022-12-16T12:10:30.647Z,41.13
2022-12-16T12:13:31.371Z,39.95
2022-12-16T12:16:22.684Z,39.08
2022-12-16T12:19:31.454Z,45.20
2022-12-16T12:22:31.822Z,41.80
2022-12-16T12:25:23.165Z,40.65
2022-12-16T12:28:20.683Z,38.83
2022-12-16T12:31:13.756Z,42.53
2022-12-16T12:34:13.784Z,43.08
2022-12-16T12:37:08.302Z,41.10
2022-12-16T12:39:59.793Z,41.60
2022-12-16T12:43:08.337Z,41.72
2022-12-16T12:46:12.746Z,39.88
2022-12-16T12:49:17.377Z,37.28
2022-12-16T12:52:20.766Z,37.92
2022-12-16T12:55:15.531Z,34.58
2022-12-16T12:58:03.205Z,34.40
2022-12-16T13:00:51.423Z,37.33
2022-12-16T13:04:00.543Z,37.72
2022-12-16T13:06:46.427Z,34.28
2022-12-16T13:09:45.553Z,35.72
2022-12-16T13:12:31.415Z,34.92
2022-12-16T13:15:22.944Z,38.55
2022-12-16T13:18:20.312Z,33.33
2022-12-16T13:21:09.780Z,31.70
2022-12-16T13:23:56.995Z,34.90
2022-12-16T13:26:43.985Z,34.65
2022-12-16T13:29:52.117Z,33.22
2022-12-16T13:32:39.155Z,35.97
2022-12-16T13:35:27.484Z,36.25
2022-12-16T13:38:14.311Z,40.80
2022-12-16T13:41:15.290Z,36.38
2022-12-16T13:44:17.462Z,34.60
2022-12-16T13:47:05.888Z,35.10
2022-12-16T13:50:11.391Z,35.63
2022-12-16T13:52:57.360Z,35.97
2022-12-16T13:56:01.639Z,35.20
2022-12-16T13:59:06.114Z,36.72
2022-12-16T14:02:02.490Z,36.17
2022-12-16T14:04:50.837Z,35.60
2022-12-16T14:07:37.690Z,35.75
2022-12-16T14:10:23.783Z,39.58
2022-12-16T14:13:23.953Z,34.42
2022-12-16T14:16:09.883Z,34.40
2022-12-16T14:19:03.305Z,36.20
2022-12-16T14:21:54.339Z,37.03
2022-12-16T14:24:43.339Z,30.98
2022-12-16T14:27:33.313Z,33.60
2022-12-16T14:30:19.264Z,35.63
2022-12-16T14:33:05.281Z,35.58
2022-12-16T14:35:51.287Z,36.10
2022-12-16T14:38:37.071Z,36.90
2022-12-16T14:41:23.145Z,37.25
2022-12-16T14:46:50.587Z,33.38
2022-12-16T14:49:39.084Z,35.67
2022-12-16T14:52:35.050Z,34.28
2022-12-16T14:55:30.798Z,37.72
2022-12-16T14:58:37.340Z,36.65
2022-12-16T15:01:28.849Z,35.53
2022-12-16T15:04:15.265Z,35.25
2022-12-16T15:07:02.594Z,37.85
2022-12-16T15:09:57.970Z,35.45
2022-12-16T15:12:45.215Z,39.15
2022-12-16T15:15:49.566Z,34.67
2022-12-16T15:18:37.633Z,36.13
2022-12-16T15:21:23.478Z,34.10
2022-12-16T15:24:10.440Z,37.22
2022-12-16T15:26:56.169Z,34.08
2022-12-16T15:29:47.731Z,33.13
2022-12-16T15:32:45.352Z,32.08
2022-12-16T15:35:42.333Z,33.63
2022-12-16T15:38:33.923Z,32.72
2022-12-16T15:41:23.701Z,30.90
2022-12-16T15:44:09.858Z,32.45
2022-12-16T15:46:55.866Z,32.35
2022-12-16T15:49:41.948Z,28.38
2022-12-16T15:52:46.665Z,27.88
2022-12-16T15:55:44.409Z,31.42
2022-12-16T15:58:34.387Z,30.92
2022-12-16T16:01:27.975Z,26.90
2022-12-16T16:04:15.937Z,32.45
2022-12-16T16:07:05.453Z,29.02
2022-12-16T16:09:52.000Z,28.60
2022-12-16T16:12:39.068Z,27.10
2022-12-16T16:15:26.308Z,28.67
2022-12-16T16:18:20.192Z,28.67
2022-12-16T16:21:06.080Z,33.78
2022-12-16T16:23:52.040Z,30.42
2022-12-16T16:26:39.142Z,29.60
2022-12-16T16:29:24.985Z,26.95
2022-12-16T16:32:11.841Z,31.90
2022-12-16T16:34:57.748Z,27.48
2022-12-16T16:37:43.652Z,32.75
2022-12-16T16:40:36.526Z,30.35
2022-12-16T16:43:22.437Z,29.58
2022-12-16T16:46:12.199Z,31.50
2022-12-16T16:48:58.757Z,30.30
2022-12-16T16:51:44.660Z,26.33
2022-12-16T16:54:30.696Z,35.42
2022-12-16T16:57:16.714Z,30.92
2022-12-16T17:00:02.616Z,31.98
2022-12-16T17:02:48.869Z,32.65
2022-12-16T17:05:34.703Z,32.30
2022-12-16T17:08:31.219Z,28.25
2022-12-16T17:11:17.253Z,31.20
2022-12-16T17:14:03.239Z,30.58
2022-12-16T17:16:49.330Z,30.23
2022-12-16T17:19:35.200Z,32.15
2022-12-16T17:22:21.161Z,32.42
2022-12-16T17:25:07.076Z,33.05
2022-12-16T17:27:53.197Z,31.27
2022-12-16T17:30:46.516Z,36.15
2022-12-16T17:33:34.303Z,41.70
2022-12-16T17:36:20.271Z,35.05
2022-12-16T17:39:06.268Z,36.15
2022-12-16T17:41:52.839Z,36.88
2022-12-16T17:44:38.945Z,36.58
2022-12-16T17:47:24.813Z,39.85
2022-12-16T17:50:10.812Z,38.70
2022-12-16T17:52:56.768Z,42.15
2022-12-16T17:55:42.886Z,36.35
2022-12-16T17:58:30.949Z,36.10
2022-12-16T18:01:23.993Z,32.30
2022-12-16T18:04:10.579Z,35.30
2022-12-16T18:06:56.464Z,44.70
2022-12-16T18:09:42.421Z,45.75
2022-12-16T18:12:28.369Z,42.13
2022-12-16T18:15:14.383Z,41.35
2022-12-16T18:18:00.342Z,39.80
2022-12-16T18:20:46.221Z,41.63
2022-12-16T18:23:32.696Z,43.78
2022-12-16T18:26:20.276Z,40.00
2022-12-16T18:29:06.312Z,40.15
2022-12-16T18:31:52.881Z,37.05
2022-12-16T18:34:38.671Z,37.67
2022-12-16T18:37:24.613Z,43.55
2022-12-16T18:40:10.808Z,41.72
2022-12-16T18:43:10.474Z,40.97
2022-12-16T18:45:56.640Z,45.20
2022-12-16T18:48:42.698Z,37.60
2022-12-16T18:51:28.736Z,46.55
2022-12-16T18:54:14.663Z,42.15
2022-12-16T18:57:00.509Z,40.33
2022-12-16T18:59:46.524Z,42.58
2022-12-16T19:02:33.053Z,41.55
2022-12-16T19:05:19.010Z,45.08
2022-12-16T19:08:05.801Z,43.08
2022-12-16T19:10:53.955Z,39.58
2022-12-16T19:13:39.792Z,40.88
2022-12-16T19:16:26.091Z,40.17
2022-12-16T19:19:17.933Z,36.20
2022-12-16T19:22:05.886Z,37.22
2022-12-16T19:24:51.874Z,34.58
2022-12-16T19:27:37.809Z,42.65
2022-12-16T19:30:23.982Z,34.47
2022-12-16T19:33:09.835Z,40.97
2022-12-16T19:35:56.888Z,62.15
2022-12-16T19:38:56.619Z,44.33
2022-12-16T19:41:42.623Z,36.58
2022-12-16T19:44:28.672Z,37.60
2022-12-16T19:47:14.659Z,40.33
2022-12-16T19:50:00.653Z,41.90
2022-12-16T19:52:46.609Z,39.78
2022-12-16T19:55:32.500Z,41.83
2022-12-16T19:58:18.528Z,40.38
2022-12-16T20:01:04.426Z,39.70
2022-12-16T20:03:51.940Z,35.10
2022-12-16T20:06:38.309Z,38.78
2022-12-16T20:09:24.303Z,39.92
2022-12-16T20:12:10.107Z,37.22
2022-12-16T20:14:56.522Z,38.55
2022-12-16T20:17:42.708Z,36.88
2022-12-16T20:20:28.745Z,36.75
2022-12-16T20:23:14.969Z,39.00
2022-12-16T20:26:00.935Z,38.70
2022-12-16T20:28:46.802Z,41.00
2022-12-16T20:31:32.689Z,40.95
2022-12-16T20:34:18.573Z,38.63
2022-12-16T20:37:06.025Z,39.58
2022-12-16T20:40:05.590Z,37.58
2022-12-16T20:42:51.673Z,41.50
2022-12-16T20:45:39.056Z,37.05
2022-12-16T20:48:25.090Z,39.85
2022-12-16T20:51:22.566Z,37.80
2022-12-16T20:54:10.637Z,42.95
2022-12-16T20:56:56.727Z,41.58
2022-12-16T20:59:42.758Z,41.38
2022-12-16T21:05:36.331Z,41.90
2022-12-16T21:08:22.546Z,39.20
2022-12-16T21:11:08.488Z,41.95
2022-12-16T21:19:46.006Z,39.70
2022-12-16T21:22:31.865Z,39.50
2022-12-16T21:25:24.384Z,38.10
2022-12-16T21:28:10.934Z,42.38
2022-12-16T21:30:56.870Z,43.67
2022-12-16T21:33:42.946Z,36.42
2022-12-16T21:36:28.981Z,35.60
2022-12-16T21:39:14.770Z,38.60
2022-12-16T21:42:00.587Z,35.50
2022-12-16T21:44:46.597Z,34.17
2022-12-16T21:47:32.546Z,42.28
2022-12-16T21:50:18.608Z,36.05
2022-12-16T21:53:06.650Z,36.10
2022-12-16T21:55:52.578Z,32.55
2022-12-16T21:58:39.637Z,29.42
2022-12-16T22:01:26.041Z,32.45
2022-12-16T22:04:11.860Z,34.63
2022-12-16T22:06:57.870Z,31.63
2022-12-16T22:09:43.944Z,30.70
2022-12-16T22:12:29.938Z,35.60
2022-12-16T22:15:16.050Z,32.60
2022-12-16T22:18:01.883Z,37.30
2022-12-16T22:20:48.004Z,38.67
2022-12-16T22:23:34.022Z,35.50
2022-12-16T22:26:20.350Z,38.15
2022-12-16T22:29:17.020Z,35.53
2022-12-16T22:32:02.900Z,31.55
2022-12-16T22:34:48.940Z,32.45
2022-12-16T22:37:34.761Z,31.90
2022-12-16T22:40:20.714Z,37.42
2022-12-16T22:43:07.656Z,36.33
2022-12-16T22:45:53.603Z,31.00
2022-12-16T22:48:42.023Z,30.63
2022-12-16T22:51:31.638Z,39.25
2022-12-16T22:54:17.829Z,36.38
2022-12-16T22:57:03.800Z,32.25
2022-12-16T22:59:49.708Z,33.75
2022-12-16T23:02:35.637Z,31.63
2022-12-16T23:05:27.296Z,30.50
2022-12-16T23:08:13.599Z,32.25
2022-12-16T23:10:59.638Z,30.60
2022-12-16T23:13:46.232Z,33.22
2022-12-16T23:16:32.326Z,29.58
2022-12-16T23:19:18.253Z,31.33
2022-12-16T23:22:04.185Z,34.13
2022-12-16T23:24:50.290Z,30.90
2022-12-16T23:27:36.057Z,30.58
2022-12-16T23:30:21.889Z,27.05
2022-12-16T23:33:07.992Z,29.00
2022-12-16T23:35:53.951Z,27.30
2022-12-16T23:38:41.534Z,30.27
2022-12-16T23:41:27.521Z,26.15
2022-12-16T23:44:13.458Z,28.80
2022-12-16T23:46:59.573Z,27.90
2022-12-16T23:49:45.566Z,27.00
2022-12-16T23:52:31.466Z,31.55
2022-12-16T23:55:17.469Z,28.08
2022-12-16T23:58:03.283Z,29.25
